Time;durP1;ratioP1;P1;durP2;ratioP2;P2;SDS_P1;SDS_P2;PMS_P1;PMS_P2;Temp;Humidity;BMP_temperature;BMP_pressure;BME280_temperature;BME280_humidity;BME280_pressure;Samples;Min_cycle;Max_cycle;Signal;HPM_P1;HPM_P2
2022/01/21 00:00:55;;;;;;;52.70;47.08;;;15.80;55.40;;;;;;5018086;27;96099;-71
2022/01/21 00:03:21;;;;;;;52.17;46.75;;;15.80;55.50;;;;;;5012698;27;96283;-72
2022/01/21 00:05:47;;;;;;;51.88;46.45;;;15.80;55.30;;;;;;5014266;27;94965;-71
2022/01/21 00:08:12;;;;;;;52.47;46.95;;;15.80;55.20;;;;;;5010248;27;95818;-71
2022/01/21 00:10:38;;;;;;;52.22;46.63;;;15.80;55.50;;;;;;5019910;27;95418;-71
2022/01/21 00:13:14;;;;;;;52.50;46.85;;;15.80;55.20;;;;;;5017812;27;96360;-72
2022/01/21 00:15:39;;;;;;;51.80;46.40;;;15.80;55.40;;;;;;5008888;27;95260;-72
2022/01/21 00:18:18;;;;;;;48.53;43.58;;;15.70;55.40;;;;;;2696704;27;10088885;-72
2022/01/21 00:31:45;;;;;;;52.10;46.60;;;15.70;55.40;;;;;;5016895;27;94222;-71
2022/01/21 00:34:11;;;;;;;51.42;46.00;;;15.70;55.50;;;;;;5003659;27;95500;-72
2022/01/21 00:36:36;;;;;;;52.42;46.88;;;15.70;55.50;;;;;;5008569;27;96498;-71
2022/01/21 00:39:03;;;;;;;52.08;46.55;;;15.70;55.50;;;;;;5010072;27;96161;-71
2022/01/21 00:41:32;;;;;;;52.17;46.65;;;15.70;55.40;;;;;;5017963;27;95366;-71
2022/01/21 00:43:58;;;;;;;51.90;46.55;;;15.70;55.30;;;;;;5015919;27;95299;-71
2022/01/21 00:46:24;;;;;;;51.72;46.33;;;15.70;55.40;;;;;;5014840;27;95648;-71
2022/01/21 00:48:49;;;;;;;51.92;46.47;;;15.70;55.40;;;;;;5016618;27;94861;-71
2022/01/21 00:51:15;;;;;;;51.97;46.58;;;15.60;55.40;;;;;;5010321;27;95609;-71
2022/01/21 00:53:41;;;;;;;52.08;46.63;;;15.60;55.30;;;;;;5011307;27;95501;-71
2022/01/21 00:56:06;;;;;;;51.65;46.25;;;15.60;55.20;;;;;;5008756;27;95342;-72
2022/01/21 00:58:32;;;;;;;51.65;46.25;;;15.60;55.40;;;;;;5009560;27;95764;-71
2022/01/21 01:00:58;;;;;;;51.53;46.03;;;15.50;55.40;;;;;;5000150;27;95288;-72
2022/01/21 01:03:23;;;;;;;52.40;46.85;;;15.50;55.60;;;;;;5012884;27;96476;-72
2022/01/21 01:05:51;;;;;;;52.00;46.58;;;15.60;55.50;;;;;;5012154;27;100154;-72
2022/01/21 01:08:17;;;;;;;52.05;46.58;;;15.50;55.40;;;;;;5015006;27;95253;-71
2022/01/21 01:21:22;;;;;;;51.63;46.13;;;15.50;55.80;;;;;;5012342;27;94516;-71
2022/01/21 01:29:10;;;;;;;52.00;46.50;;;15.30;55.60;;;;;;5005613;27;100373;-72
2022/01/21 01:31:36;;;;;;;51.22;45.90;;;15.30;55.70;;;;;;5014177;27;95116;-71
2022/01/21 01:34:03;;;;;;;51.47;46.15;;;15.30;55.70;;;;;;5019618;27;96064;-72
2022/01/21 01:36:29;;;;;;;51.42;46.03;;;15.30;55.80;;;;;;5011175;27;96069;-71
2022/01/21 01:41:40;;;;;;;51.70;46.33;;;15.30;55.70;;;;;;5009932;27;95741;-71
2022/01/21 01:49:38;;;;;;;51.75;46.35;;;15.30;55.90;;;;;;5011466;27;97990;-71
2022/01/21 01:52:08;;;;;;;51.38;46.08;;;15.20;55.70;;;;;;5010154;27;95081;-72
2022/01/21 01:54:37;;;;;;;51.03;45.65;;;15.10;55.80;;;;;;5007189;27;97478;-71
2022/01/21 01:57:04;;;;;;;51.50;46.03;;;15.10;56.00;;;;;;5007906;27;96033;-71
2022/01/21 01:59:29;;;;;;;51.67;46.28;;;15.10;55.80;;;;;;5011420;27;95108;-71
2022/01/21 02:02:01;;;;;;;51.63;46.13;;;15.20;55.90;;;;;;5010086;27;95780;-71
2022/01/21 02:04:27;;;;;;;51.90;46.50;;;15.20;55.80;;;;;;5007321;27;94734;-72
2022/01/21 02:06:53;;;;;;;51.53;46.03;;;15.20;55.60;;;;;;5006807;27;98760;-72
2022/01/21 02:09:20;;;;;;;51.00;45.70;;;15.10;55.80;;;;;;5011508;27;95152;-72
2022/01/21 02:11:46;;;;;;;50.88;45.67;;;15.20;56.00;;;;;;5018210;27;93884;-71
2022/01/21 02:14:16;;;;;;;51.15;45.78;;;15.20;55.90;;;;;;4995157;27;97025;-72
2022/01/21 02:22:08;;;;;;;51.67;46.28;;;15.20;55.50;;;;;;4999357;27;95885;-71
2022/01/21 02:24:52;;;;;;;51.53;46.17;;;15.20;55.60;;;;;;4990272;28;97229;-71
2022/01/21 02:27:18;;;;;;;51.30;46.03;;;15.30;55.30;;;;;;5007629;27;95085;-71
2022/01/21 02:29:47;;;;;;;51.00;45.80;;;15.20;55.50;;;;;;5010085;27;96501;-72
2022/01/21 02:32:14;;;;;;;51.78;45.95;;;15.20;55.60;;;;;;5019333;27;94737;-71
2022/01/21 02:34:58;;;;;;;46.65;41.78;;;15.30;55.50;;;;;;1184551;27;10119429;-71
2022/01/21 02:37:23;;;;;;;51.78;46.45;;;15.30;55.40;;;;;;4662631;27;10096299;-72
2022/01/21 02:39:50;;;;;;;51.38;45.97;;;15.30;55.50;;;;;;5009131;27;96390;-71
2022/01/21 02:42:16;;;;;;;51.05;45.83;;;15.20;55.10;;;;;;5010458;27;95655;-71
2022/01/21 02:44:43;;;;;;;51.40;46.00;;;15.30;55.00;;;;;;5010612;27;96056;-71
2022/01/21 02:47:09;;;;;;;51.40;46.10;;;15.30;55.30;;;;;;5012054;27;96709;-71
2022/01/21 02:49:35;;;;;;;51.65;46.25;;;15.30;55.20;;;;;;5012431;27;95591;-72
2022/01/21 02:52:03;;;;;;;51.22;45.83;;;15.30;55.70;;;;;;5010690;27;94817;-71
2022/01/21 02:54:31;;;;;;;51.95;46.55;;;15.30;55.30;;;;;;5010385;27;99931;-71
2022/01/21 02:57:00;;;;;;;50.97;45.70;;;15.30;55.20;;;;;;5002385;27;96480;-72
2022/01/21 02:59:27;;;;;;;51.47;46.20;;;15.30;55.20;;;;;;4990404;27;95474;-71
2022/01/21 03:01:53;;;;;;;53.67;46.17;;;15.20;55.20;;;;;;5013564;27;100101;-71
2022/01/21 03:04:32;;;;;;;51.50;46.00;;;15.20;55.20;;;;;;5008265;27;95013;-71
2022/01/21 03:06:58;;;;;;;51.53;46.10;;;15.20;55.30;;;;;;5016627;27;95162;-72
2022/01/21 03:09:23;;;;;;;51.45;46.03;;;15.20;55.40;;;;;;5011639;27;97162;-71
2022/01/21 03:11:49;;;;;;;51.67;46.03;;;15.20;55.50;;;;;;5001433;27;95956;-71
2022/01/21 03:14:15;;;;;;;51.05;45.80;;;15.20;55.50;;;;;;5015045;27;95083;-71
2022/01/21 03:16:41;;;;;;;51.25;45.83;;;15.20;55.30;;;;;;5007997;27;95638;-71
2022/01/21 03:19:07;;;;;;;51.35;46.05;;;15.20;55.50;;;;;;5015002;27;94767;-72
2022/01/21 03:21:32;;;;;;;51.35;45.97;;;15.30;55.50;;;;;;5009237;27;97176;-71
2022/01/21 03:23:58;;;;;;;51.83;46.20;;;15.30;55.40;;;;;;5006219;27;96034;-71
2022/01/21 03:26:25;;;;;;;51.30;46.00;;;15.30;55.40;;;;;;5008898;27;95490;-71
2022/01/21 03:28:54;;;;;;;51.28;45.97;;;15.20;55.20;;;;;;5009625;27;96251;-71
2022/01/21 03:31:20;;;;;;;51.22;45.88;;;15.20;55.40;;;;;;5010454;27;96069;-71
2022/01/21 03:33:46;;;;;;;51.60;46.17;;;15.20;55.30;;;;;;5006685;27;96657;-71
2022/01/21 03:36:12;;;;;;;51.42;46.03;;;15.30;55.30;;;;;;5011179;27;95875;-72
2022/01/21 03:38:38;;;;;;;53.15;46.03;;;15.30;55.20;;;;;;5008934;27;94733;-71
2022/01/21 03:41:04;;;;;;;51.53;46.13;;;15.20;55.40;;;;;;4998502;27;96749;-71
2022/01/21 03:43:30;;;;;;;51.28;45.67;;;15.20;55.50;;;;;;5008658;27;94992;-71
2022/01/21 03:45:55;;;;;;;51.42;45.92;;;15.30;55.20;;;;;;5016484;27;94695;-71
2022/01/21 03:48:21;;;;;;;51.45;46.00;;;15.30;55.10;;;;;;5010617;27;94899;-71
2022/01/21 03:50:48;;;;;;;51.25;45.95;;;15.30;55.10;;;;;;5010975;27;94901;-71
2022/01/21 03:53:14;;;;;;;50.97;45.78;;;15.30;55.20;;;;;;5007038;27;95361;-71
2022/01/21 03:55:41;;;;;;;51.33;45.75;;;15.30;55.10;;;;;;5006785;27;95286;-71
2022/01/21 03:58:09;;;;;;;50.78;45.60;;;15.30;55.20;;;;;;5008380;27;96422;-71
2022/01/21 04:00:38;;;;;;;51.08;45.67;;;15.30;55.20;;;;;;5001459;27;96556;-72
2022/01/21 04:03:04;;;;;;;51.35;45.92;;;15.30;55.50;;;;;;5004434;27;96081;-71
2022/01/21 04:05:31;;;;;;;51.45;45.95;;;15.20;55.20;;;;;;5011112;27;95558;-72
2022/01/21 04:07:57;;;;;;;51.08;45.80;;;15.20;55.50;;;;;;5010227;27;95430;-71
2022/01/21 04:10:23;;;;;;;51.15;45.85;;;15.20;55.50;;;;;;5000833;27;96817;-71
2022/01/21 04:12:49;;;;;;;51.25;45.92;;;15.20;55.60;;;;;;5013124;27;95782;-71
2022/01/21 04:15:15;;;;;;;51.35;45.95;;;15.20;55.50;;;;;;5010904;27;94529;-71
2022/01/21 04:17:41;;;;;;;51.55;46.05;;;15.20;55.60;;;;;;5015046;27;96311;-71
2022/01/21 04:20:09;;;;;;;51.60;46.10;;;15.10;55.40;;;;;;5008832;27;98601;-71
2022/01/21 04:22:35;;;;;;;51.15;45.85;;;15.10;56.00;;;;;;5013986;27;96587;-71
2022/01/21 04:25:01;;;;;;;51.17;45.85;;;15.10;55.50;;;;;;5013002;27;95485;-71
2022/01/21 04:27:27;;;;;;;51.15;45.75;;;15.10;55.40;;;;;;5004841;27;96381;-71
2022/01/21 04:29:53;;;;;;;51.15;45.72;;;15.10;55.50;;;;;;4996418;27;96963;-71
2022/01/21 04:32:19;;;;;;;51.33;45.95;;;15.20;55.60;;;;;;5012037;27;95587;-71
2022/01/21 04:34:44;;;;;;;51.20;45.80;;;15.20;55.60;;;;;;5017786;27;95257;-71
2022/01/21 04:37:12;;;;;;;51.58;45.95;;;15.20;55.40;;;;;;5018006;27;100991;-71
2022/01/21 04:39:51;;;;;;;51.40;45.95;;;15.20;55.10;;;;;;5013254;27;95450;-71
2022/01/21 04:47:32;;;;;;;51.17;45.72;;;15.30;55.10;;;;;;5015925;27;97187;-71
2022/01/21 04:49:58;;;;;;;51.45;46.05;;;15.30;55.20;;;;;;5013464;27;95788;-71
2022/01/21 04:52:24;;;;;;;51.08;45.75;;;15.40;55.20;;;;;;5008541;27;95331;-71
2022/01/21 04:54:51;;;;;;;51.10;45.70;;;15.50;55.40;;;;;;5015715;27;101425;-71
2022/01/21 04:57:16;;;;;;;51.38;45.97;;;15.80;56.00;;;;;;5005905;27;96428;-71
2022/01/21 04:59:43;;;;;;;51.47;46.00;;;16.10;55.80;;;;;;5008793;27;95215;-71
2022/01/21 05:02:09;;;;;;;51.67;46.17;;;16.30;55.30;;;;;;5017089;27;95378;-71
2022/01/21 05:04:36;;;;;;;50.85;45.50;;;16.50;54.90;;;;;;5016457;27;94777;-71
2022/01/21 05:07:04;;;;;;;51.38;46.03;;;16.70;54.60;;;;;;5010611;27;95075;-71
2022/01/21 05:09:32;;;;;;;51.30;45.90;;;16.80;54.10;;;;;;5011805;27;95331;-71
2022/01/21 05:12:00;;;;;;;51.45;45.95;;;17.00;53.90;;;;;;5011827;27;96164;-71
2022/01/21 05:14:42;;;;;;;51.47;46.10;;;17.10;54.30;;;;;;5016005;27;95815;-71
2022/01/21 05:17:10;;;;;;;51.10;45.80;;;17.20;53.50;;;;;;5010606;27;96088;-71
2022/01/21 05:19:36;;;;;;;51.13;45.85;;;17.10;53.10;;;;;;5011419;27;98031;-71
2022/01/21 05:22:01;;;;;;;51.72;46.20;;;17.30;52.70;;;;;;5005217;27;96923;-72
2022/01/21 05:24:27;;;;;;;51.78;46.05;;;17.50;52.40;;;;;;5015536;27;95447;-71
2022/01/21 05:26:54;;;;;;;51.60;46.00;;;17.60;52.00;;;;;;5010963;27;97781;-71
2022/01/21 05:29:23;;;;;;;52.20;46.25;;;17.60;51.80;;;;;;4994354;27;94920;-71
2022/01/21 05:31:49;;;;;;;51.50;46.05;;;17.70;51.40;;;;;;5008195;27;95313;-71
2022/01/21 05:34:29;;;;;;;46.58;41.77;;;17.70;51.20;;;;;;3167222;27;10096922;-71
2022/01/21 05:36:55;;;;;;;51.30;45.95;;;17.70;51.30;;;;;;2566907;27;10098347;-71
2022/01/21 05:39:22;;;;;;;51.28;45.95;;;17.70;51.10;;;;;;5012133;27;95590;-71
2022/01/21 05:41:50;;;;;;;51.50;46.05;;;17.70;51.10;;;;;;5010565;27;95662;-72
2022/01/21 05:46:57;;;;;;;51.60;46.00;;;17.50;51.20;;;;;;5014101;27;98443;-72
2022/01/21 05:49:25;;;;;;;51.78;46.20;;;17.40;51.40;;;;;;5009876;27;95069;-72
2022/01/21 05:52:01;;;;;;;51.30;45.90;;;17.30;51.70;;;;;;5012831;27;94686;-72
2022/01/21 05:54:27;;;;;;;51.05;45.67;;;17.20;51.90;;;;;;5002371;27;95193;-74
2022/01/21 05:56:53;;;;;;;51.47;46.05;;;17.20;51.90;;;;;;5005963;27;95512;-74
2022/01/21 05:59:19;;;;;;;51.00;45.60;;;17.10;52.00;;;;;;5001697;27;100179;-75
2022/01/21 06:01:45;;;;;;;51.33;45.85;;;17.00;52.10;;;;;;5006123;27;95956;-73
2022/01/21 06:04:11;;;;;;;53.17;46.17;;;17.10;52.20;;;;;;5014638;27;96092;-73
2022/01/21 06:06:37;;;;;;;52.42;46.35;;;17.00;52.30;;;;;;5008612;27;98241;-73
2022/01/21 06:09:05;;;;;;;51.63;46.03;;;17.10;52.20;;;;;;5010493;27;95701;-72
2022/01/21 06:11:30;;;;;;;53.15;46.03;;;16.90;52.20;;;;;;5009090;27;99677;-72
2022/01/21 06:13:56;;;;;;;51.45;45.95;;;16.90;52.50;;;;;;5005080;27;95208;-72
2022/01/21 06:16:22;;;;;;;51.55;45.95;;;16.90;52.40;;;;;;4994213;28;98194;-72
2022/01/21 06:18:48;;;;;;;51.50;45.90;;;16.80;52.60;;;;;;5011799;27;94847;-72
2022/01/21 06:21:14;;;;;;;51.42;45.90;;;16.80;52.60;;;;;;5000420;27;96077;-72
2022/01/21 06:23:39;;;;;;;51.63;45.60;;;16.80;52.50;;;;;;4978558;28;96929;-72
2022/01/21 06:26:05;;;;;;;51.05;45.78;;;16.70;52.30;;;;;;5002748;27;96447;-72
2022/01/21 06:28:31;;;;;;;51.55;46.05;;;16.70;52.50;;;;;;5011306;27;94844;-71
2022/01/21 06:30:56;;;;;;;51.55;45.75;;;16.70;52.50;;;;;;5012487;27;94594;-72
2022/01/21 06:33:22;;;;;;;51.47;46.08;;;16.60;52.70;;;;;;5010605;27;95729;-72
2022/01/21 06:35:51;;;;;;;51.35;45.85;;;16.60;53.00;;;;;;5011219;27;94898;-72
2022/01/21 06:38:19;;;;;;;59.10;48.60;;;16.60;53.30;;;;;;5010798;27;94717;-72
2022/01/21 06:40:46;;;;;;;58.85;48.30;;;16.50;54.50;;;;;;5006610;27;96346;-72
2022/01/21 06:43:13;;;;;;;62.45;47.95;;;16.50;55.10;;;;;;5010154;27;95825;-72
2022/01/21 06:45:39;;;;;;;63.67;48.47;;;16.50;55.30;;;;;;5014556;27;94976;-73
2022/01/21 06:48:04;;;;;;;56.55;47.80;;;16.40;55.90;;;;;;5016215;27;94909;-73
2022/01/21 06:50:33;;;;;;;54.38;47.08;;;16.40;55.90;;;;;;5013086;27;96358;-72
2022/01/21 06:52:59;;;;;;;52.55;46.85;;;16.40;55.30;;;;;;5009088;27;95030;-72
2022/01/21 06:55:25;;;;;;;54.72;47.13;;;16.30;55.10;;;;;;5016164;27;97663;-72
2022/01/21 06:57:50;;;;;;;52.05;46.60;;;16.20;55.00;;;;;;4993014;27;94968;-72
2022/01/21 07:00:18;;;;;;;52.50;46.80;;;16.20;54.80;;;;;;5009334;27;96247;-72
2022/01/21 07:02:48;;;;;;;52.05;46.40;;;16.20;54.90;;;;;;5017345;27;95705;-73
2022/01/21 07:05:15;;;;;;;52.38;46.53;;;16.20;54.70;;;;;;5014397;27;96953;-72
2022/01/21 07:07:41;;;;;;;52.30;46.55;;;16.30;54.50;;;;;;5013165;27;94336;-72
2022/01/21 07:10:10;;;;;;;52.40;46.40;;;16.20;54.20;;;;;;5015261;27;94958;-73
2022/01/21 07:12:36;;;;;;;52.35;46.45;;;16.20;54.30;;;;;;5007991;27;95293;-73
2022/01/21 07:15:02;;;;;;;52.13;46.38;;;16.20;54.50;;;;;;5015033;27;96013;-73
2022/01/21 07:17:28;;;;;;;51.65;46.25;;;16.30;54.20;;;;;;5006884;27;96187;-73
2022/01/21 07:19:53;;;;;;;53.80;46.33;;;16.20;54.00;;;;;;5011682;27;94676;-73
2022/01/21 07:22:19;;;;;;;51.90;46.30;;;16.20;54.10;;;;;;5010693;27;96582;-73
2022/01/21 07:24:45;;;;;;;51.85;46.33;;;16.20;54.40;;;;;;4995213;28;96082;-73
2022/01/21 07:27:10;;;;;;;53.40;46.13;;;16.00;54.20;;;;;;5014061;27;94741;-73
2022/01/21 07:29:36;;;;;;;52.22;46.65;;;16.10;54.30;;;;;;5002882;27;95516;-73
2022/01/21 07:32:02;;;;;;;53.55;46.38;;;16.00;54.10;;;;;;5017030;27;94443;-74
2022/01/21 07:34:28;;;;;;;52.30;46.70;;;15.90;54.40;;;;;;5017374;27;96047;-72
2022/01/21 07:36:55;;;;;;;53.95;46.42;;;16.00;54.70;;;;;;4991783;27;96023;-72
2022/01/21 07:39:21;;;;;;;54.47;46.55;;;16.00;54.90;;;;;;4986148;27;96897;-73
2022/01/21 07:41:47;;;;;;;51.90;46.40;;;16.00;54.80;;;;;;4981236;27;96973;-73
2022/01/21 07:44:13;;;;;;;52.45;46.38;;;16.10;55.10;;;;;;4984296;27;96239;-73
2022/01/21 07:46:40;;;;;;;52.03;46.42;;;16.20;54.60;;;;;;4960174;27;95409;-73
2022/01/21 07:49:06;;;;;;;53.20;46.22;;;16.20;54.50;;;;;;5001350;27;95609;-73
2022/01/21 07:51:32;;;;;;;51.95;46.33;;;16.20;54.60;;;;;;5017412;27;95524;-73
2022/01/21 07:53:58;;;;;;;52.00;46.42;;;16.20;54.30;;;;;;5007103;27;95862;-73
2022/01/21 07:56:23;;;;;;;52.15;46.53;;;16.40;54.20;;;;;;5009076;27;94486;-73
2022/01/21 07:58:51;;;;;;;51.80;46.28;;;16.40;54.00;;;;;;5003969;27;95353;-73
2022/01/21 08:01:16;;;;;;;52.90;46.28;;;16.40;53.90;;;;;;5008975;27;95567;-73
2022/01/21 08:03:42;;;;;;;52.63;46.40;;;16.50;53.90;;;;;;4999580;27;97154;-73
2022/01/21 08:06:07;;;;;;;53.92;46.55;;;16.50;53.70;;;;;;5016065;27;95503;-73
2022/01/21 08:08:33;;;;;;;51.47;46.05;;;16.50;53.60;;;;;;5010845;27;95750;-74
2022/01/21 08:10:59;;;;;;;51.80;46.33;;;16.60;53.60;;;;;;5016000;27;96626;-73
2022/01/21 08:13:27;;;;;;;51.70;46.22;;;16.60;53.20;;;;;;5014702;27;95342;-73
2022/01/21 08:15:53;;;;;;;51.92;46.40;;;16.60;53.20;;;;;;5006598;27;97903;-73
2022/01/21 08:18:19;;;;;;;51.58;46.22;;;16.60;53.20;;;;;;5015323;27;99662;-73
2022/01/21 08:20:45;;;;;;;52.15;46.40;;;16.60;53.10;;;;;;4995532;27;95603;-73
2022/01/21 08:23:13;;;;;;;51.50;46.00;;;16.70;53.00;;;;;;326753;28;10102018;-73
2022/01/21 08:25:40;;;;;;;51.65;46.13;;;16.60;53.00;;;;;;5016183;27;94830;-73
2022/01/21 08:28:06;;;;;;;51.45;45.95;;;16.70;52.90;;;;;;5003342;27;97492;-73
2022/01/21 08:30:34;;;;;;;51.88;46.38;;;16.70;52.80;;;;;;4997970;27;95918;-73
2022/01/21 08:33:00;;;;;;;51.85;46.33;;;16.70;52.80;;;;;;5010313;27;95401;-73
2022/01/21 08:35:25;;;;;;;52.45;46.75;;;16.70;52.60;;;;;;5016607;27;94779;-73
2022/01/21 08:37:54;;;;;;;51.97;46.45;;;16.70;52.50;;;;;;5017832;27;95172;-74
2022/01/21 08:40:21;;;;;;;51.95;46.25;;;16.70;52.40;;;;;;5011797;27;95603;-73
2022/01/21 08:42:46;;;;;;;52.13;46.17;;;16.70;52.40;;;;;;5005527;27;95531;-73
2022/01/21 08:45:12;;;;;;;52.05;46.47;;;16.70;52.50;;;;;;5005466;27;96990;-73
2022/01/21 08:47:40;;;;;;;52.00;46.50;;;16.70;52.60;;;;;;4992344;27;98216;-73
2022/01/21 08:50:09;;;;;;;51.92;46.53;;;16.60;52.50;;;;;;5009386;27;101186;-73
2022/01/21 08:52:37;;;;;;;52.17;46.47;;;16.60;52.50;;;;;;5008501;27;96338;-72
2022/01/21 08:55:05;;;;;;;51.83;46.40;;;16.60;52.70;;;;;;5009638;27;95823;-72
2022/01/21 08:57:34;;;;;;;52.17;46.58;;;16.70;52.70;;;;;;5010359;27;95309;-72
2022/01/21 09:00:00;;;;;;;53.40;46.35;;;16.60;52.40;;;;;;5007595;27;96888;-72
2022/01/21 09:02:25;;;;;;;53.10;46.85;;;16.60;52.40;;;;;;5013008;27;95192;-72
2022/01/21 09:04:51;;;;;;;52.70;47.00;;;16.70;52.40;;;;;;5007265;27;94903;-72
2022/01/21 09:07:17;;;;;;;55.30;46.72;;;16.70;52.30;;;;;;4991135;27;95910;-71
2022/01/21 09:09:42;;;;;;;52.60;46.80;;;16.80;52.60;;;;;;4997117;27;95442;-72
2022/01/21 09:12:08;;;;;;;52.63;46.95;;;16.70;52.20;;;;;;5005587;27;96275;-72
2022/01/21 09:14:34;;;;;;;56.33;46.78;;;16.70;52.50;;;;;;5003203;27;100976;-72
2022/01/21 09:17:00;;;;;;;56.72;46.78;;;16.80;52.60;;;;;;5002093;27;100430;-72
2022/01/21 09:19:26;;;;;;;52.50;46.70;;;16.80;52.50;;;;;;5003996;27;95299;-72
2022/01/21 09:21:54;;;;;;;52.55;46.88;;;16.80;52.50;;;;;;4991977;27;100196;-73
2022/01/21 09:24:20;;;;;;;59.13;46.97;;;16.90;52.30;;;;;;5006993;27;96543;-72
2022/01/21 09:26:46;;;;;;;52.72;47.03;;;17.00;52.30;;;;;;5014318;27;95247;-72
2022/01/21 09:29:12;;;;;;;52.47;46.88;;;17.00;52.00;;;;;;4992038;27;95041;-74
2022/01/21 09:31:38;;;;;;;52.85;47.10;;;17.10;52.00;;;;;;4982296;27;95504;-71
2022/01/21 09:34:05;;;;;;;52.53;46.83;;;17.20;51.90;;;;;;5012274;27;93968;-72
2022/01/21 09:36:32;;;;;;;52.72;47.15;;;17.20;51.80;;;;;;5007017;27;95317;-71
2022/01/21 09:38:58;;;;;;;52.75;47.10;;;17.30;52.20;;;;;;5008059;27;96070;-72
2022/01/21 09:41:24;;;;;;;53.17;47.10;;;17.40;52.30;;;;;;5017366;27;96834;-72
2022/01/21 09:43:53;;;;;;;55.30;47.58;;;17.70;52.00;;;;;;5015684;27;95132;-72
2022/01/21 09:46:25;;;;;;;56.17;47.47;;;18.00;51.30;;;;;;5009794;27;97656;-71
2022/01/21 09:49:07;;;;;;;54.35;47.65;;;18.10;50.80;;;;;;5011210;27;95725;-72
2022/01/21 09:51:34;;;;;;;54.00;47.45;;;18.20;50.70;;;;;;5001135;27;98024;-71
2022/01/21 09:54:02;;;;;;;54.70;47.20;;;18.30;50.50;;;;;;5007272;27;95604;-72
2022/01/21 09:56:29;;;;;;;55.88;47.47;;;18.30;50.20;;;;;;5014345;27;96281;-72
2022/01/21 09:59:03;;;;;;;55.63;47.95;;;18.30;50.00;;;;;;4994382;27;102808;-72
2022/01/21 10:01:29;;;;;;;54.97;47.47;;;18.40;49.80;;;;;;4996273;27;95161;-72
2022/01/21 10:03:54;;;;;;;54.47;47.53;;;18.40;49.80;;;;;;4999637;27;95405;-72
2022/01/21 10:06:27;;;;;;;53.08;47.38;;;18.50;49.80;;;;;;5002711;27;95828;-71
2022/01/21 10:08:56;;;;;;;54.33;47.88;;;18.40;49.80;;;;;;5006485;27;96602;-72
2022/01/21 10:11:23;;;;;;;55.40;47.72;;;18.40;49.80;;;;;;5004309;27;96659;-71
2022/01/21 10:13:50;;;;;;;53.75;47.50;;;18.40;49.70;;;;;;5011005;27;95198;-72
2022/01/21 10:16:16;;;;;;;58.50;48.00;;;18.40;49.80;;;;;;4995847;27;96832;-71
2022/01/21 10:18:59;;;;;;;59.50;48.15;;;18.40;50.10;;;;;;5007159;27;95573;-73
2022/01/21 10:21:30;;;;;;;57.92;47.95;;;18.40;50.40;;;;;;5014518;27;96075;-75
2022/01/21 10:24:13;;;;;;;58.00;47.88;;;18.40;50.60;;;;;;5015354;27;95018;-74
2022/01/21 10:26:53;;;;;;;56.05;47.38;;;18.40;50.60;;;;;;5014102;27;94878;-74
2022/01/21 10:29:20;;;;;;;54.00;47.65;;;18.20;50.80;;;;;;4998176;27;95630;-73
2022/01/21 10:31:52;;;;;;;59.45;48.05;;;18.20;50.90;;;;;;5002101;27;96109;-73
2022/01/21 10:34:27;;;;;;;60.80;48.28;;;18.20;51.20;;;;;;5006630;27;95596;-73
2022/01/21 10:37:06;;;;;;;56.97;48.17;;;18.20;51.00;;;;;;5008863;27;96207;-74
2022/01/21 10:39:34;;;;;;;55.63;47.85;;;18.30;51.40;;;;;;5005905;27;96295;-73
2022/01/21 10:42:01;;;;;;;61.95;48.40;;;18.30;51.10;;;;;;5013107;27;94958;-73
2022/01/21 10:44:30;;;;;;;59.33;47.92;;;18.30;51.00;;;;;;4994511;27;95016;-73
2022/01/21 10:47:10;;;;;;;55.67;47.72;;;18.30;51.30;;;;;;5011197;27;96365;-73
2022/01/21 10:49:43;;;;;;;58.67;48.08;;;18.30;51.80;;;;;;5002431;27;97531;-73
2022/01/21 10:52:10;;;;;;;55.13;48.00;;;18.40;51.80;;;;;;5022069;27;94981;-73
2022/01/21 10:54:44;;;;;;;56.33;48.28;;;18.50;51.50;;;;;;4992555;27;95967;-73
2022/01/21 10:57:11;;;;;;;57.75;48.10;;;18.60;51.30;;;;;;5009364;27;97753;-73
2022/01/21 10:59:46;;;;;;;55.97;48.50;;;18.60;51.60;;;;;;5006560;27;97233;-72
2022/01/21 11:02:12;;;;;;;57.38;47.97;;;18.50;50.60;;;;;;5004454;27;94929;-72
2022/01/21 11:04:44;;;;;;;57.95;48.30;;;18.60;51.60;;;;;;5008760;27;94840;-73
2022/01/21 11:07:13;;;;;;;;;;;18.80;51.30;;;;;;5008802;27;95543;-72
2022/01/21 11:09:38;;;;;;;55.70;47.90;;;18.80;51.00;;;;;;5009163;27;95431;-72
2022/01/21 11:12:16;;;;;;;56.10;48.00;;;18.80;50.80;;;;;;5009772;27;96119;-73
2022/01/21 11:14:59;;;;;;;54.70;48.00;;;18.90;51.30;;;;;;5011219;27;94912;-72
2022/01/21 11:17:25;;;;;;;56.55;47.83;;;19.00;51.10;;;;;;5010320;27;95490;-72
2022/01/21 11:20:16;;;;;;;55.90;48.25;;;19.10;50.90;;;;;;5001621;27;100024;-73
2022/01/21 11:22:56;;;;;;;56.50;48.22;;;19.20;50.90;;;;;;5000765;27;97133;-73
2022/01/21 11:25:51;;;;;;;57.85;47.45;;;19.20;50.90;;;;;;666592;27;10099780;-73
2022/01/21 11:28:26;;;;;;;;;;;19.10;50.80;;;;;;4985900;27;96035;-72
2022/01/21 11:30:54;;;;;;;64.70;47.88;;;19.20;50.90;;;;;;5002466;27;95155;-71
2022/01/21 11:33:22;;;;;;;54.28;48.30;;;19.20;50.90;;;;;;4985796;28;95627;-73
2022/01/21 11:35:49;;;;;;;60.58;48.42;;;19.20;51.00;;;;;;5000021;27;95145;-72
2022/01/21 11:38:17;;;;;;;61.38;48.67;;;19.20;51.10;;;;;;5004340;27;96072;-73
2022/01/21 11:40:43;;;;;;;55.63;48.13;;;19.20;51.30;;;;;;5000332;27;95757;-74
2022/01/21 11:43:10;;;;;;;57.25;48.72;;;19.20;51.40;;;;;;4986884;27;96211;-74
2022/01/21 11:50:41;;;;;;;58.58;48.55;;;19.20;52.30;;;;;;5005398;27;101744;-76
2022/01/21 11:53:07;;;;;;;61.05;48.50;;;19.20;51.90;;;;;;5015217;27;95758;-75
2022/01/21 11:55:41;;;;;;;65.05;48.33;;;19.20;52.50;;;;;;4983176;27;95916;-76
2022/01/21 11:58:16;;;;;;;60.83;48.95;;;19.20;52.60;;;;;;4988748;27;98297;-77
2022/01/21 12:00:43;;;;;;;63.45;48.70;;;19.20;53.10;;;;;;4998273;27;95144;-77
2022/01/21 12:03:11;;;;;;;59.80;48.13;;;19.30;53.20;;;;;;4996894;27;95840;-77
2022/01/21 12:05:40;;;;;;;57.28;48.17;;;19.20;53.40;;;;;;4981272;27;95047;-76
2022/01/21 12:08:07;;;;;;;56.88;48.53;;;19.30;53.30;;;;;;4994529;27;95866;-75
2022/01/21 12:10:46;;;;;;;57.30;48.33;;;19.30;53.30;;;;;;4988157;28;96928;-74
2022/01/21 12:13:20;;;;;;;61.28;48.65;;;19.30;52.80;;;;;;4998969;27;101923;-74
2022/01/21 12:21:22;;;;;;;58.25;48.63;;;19.00;52.90;;;;;;4996516;27;95616;-75
2022/01/21 12:23:48;;;;;;;57.15;48.42;;;18.90;52.80;;;;;;4968042;27;96002;-74
2022/01/21 12:26:19;;;;;;;57.45;48.22;;;18.90;52.90;;;;;;5003435;27;96133;-75
2022/01/21 12:28:53;;;;;;;60.55;48.63;;;18.90;53.10;;;;;;5002669;27;96764;-74
2022/01/21 12:31:21;;;;;;;55.35;48.38;;;18.90;53.30;;;;;;5001290;27;94967;-76
2022/01/21 12:34:09;;;;;;;55.13;48.40;;;18.90;53.00;;;;;;4984739;27;95964;-76
2022/01/21 12:36:44;;;;;;;55.75;48.55;;;18.90;53.40;;;;;;4997453;27;97362;-76
2022/01/21 12:39:37;;;;;;;56.28;48.08;;;18.90;53.60;;;;;;5006612;27;97887;-76
2022/01/21 12:42:21;;;;;;;57.83;48.53;;;18.90;53.90;;;;;;5012073;27;96131;-77
2022/01/21 12:44:53;;;;;;;56.58;48.42;;;18.90;54.50;;;;;;5011642;27;95729;-75
2022/01/21 12:47:38;;;;;;;55.97;48.35;;;18.90;54.00;;;;;;4991242;27;97403;-76
2022/01/21 12:50:25;;;;;;;54.33;48.20;;;18.90;54.10;;;;;;5010133;27;97459;-76
2022/01/21 12:52:55;;;;;;;55.00;47.97;;;18.90;54.30;;;;;;4991892;27;95728;-77
2022/01/21 12:58:20;;;;;;;56.05;48.28;;;18.90;53.60;;;;;;4995052;27;95821;-76
2022/01/21 13:00:46;;;;;;;55.75;48.30;;;18.90;54.50;;;;;;4995798;27;99437;-77
2022/01/21 13:03:16;;;;;;;56.38;48.55;;;18.90;54.60;;;;;;5007140;27;96811;-78
2022/01/21 13:05:46;;;;;;;54.15;48.22;;;18.90;54.60;;;;;;5016652;27;97379;-75
2022/01/21 13:08:38;;;;;;;56.63;48.15;;;18.90;54.40;;;;;;5009816;27;101668;-75
2022/01/21 13:11:23;;;;;;;54.65;48.15;;;18.90;54.40;;;;;;5012528;27;96336;-75
2022/01/21 13:17:05;;;;;;;54.03;48.13;;;18.80;54.80;;;;;;4992468;27;95688;-74
2022/01/21 13:19:50;;;;;;;53.95;48.05;;;18.80;54.40;;;;;;4993296;27;98004;-74
2022/01/21 13:22:20;;;;;;;56.17;48.17;;;18.80;54.10;;;;;;4997062;27;95260;-74
2022/01/21 13:24:58;;;;;;;54.00;47.88;;;18.70;53.60;;;;;;4996825;27;94028;-75
2022/01/21 13:27:25;;;;;;;56.30;48.20;;;18.70;54.10;;;;;;4992176;27;95022;-74
2022/01/21 13:30:01;;;;;;;53.58;47.65;;;18.60;53.70;;;;;;4988898;27;98442;-74
2022/01/21 13:32:27;;;;;;;53.30;47.53;;;18.60;54.30;;;;;;4993143;27;96788;-75
2022/01/21 13:35:06;;;;;;;53.85;47.65;;;18.60;54.20;;;;;;4982223;27;100292;-75
2022/01/21 13:37:32;;;;;;;53.45;47.75;;;18.70;53.90;;;;;;4996101;27;97277;-74